KBYS

Details ICAO KBYS (BYS)
Name BICYCLE LAKE AAF
Region United States
Timezone America/Los_Angeles (UTC-8.0)
Plans Departing 2
Arriving 3
Stats Elevation 2,350 ft / 716 m (AMSL)
Location 35.281125° -116.628875°
Runways 2
Magnetic Variation 11.879° E
Sunrise 2017-12-11 14:46:47 UTC / 2017-12-11 06:46:47 Local
Sunset 2017-12-12 00:35:58 UTC / 2017-12-11 16:35:58 Local
Advertisement - Login to hide

Runways

ID Width Length Bearing (true) Bearing (mag) Surface Threshold Offset Overrun Length
04 175 ft / 53 m 9,963 ft / 3,037 m 51.93° 40.05° Dirt 0 ft / 0 m 0 ft / 0 m
13 175 ft / 53 m 5,804 ft / 1,769 m 139.74° 127.86° Dirt 0 ft / 0 m 0 ft / 0 m
22 175 ft / 53 m 9,963 ft / 3,037 m 231.94° 220.06° Dirt 0 ft / 0 m 0 ft / 0 m
31 175 ft / 53 m 5,804 ft / 1,769 m 319.75° 307.87° Dirt 0 ft / 0 m 0 ft / 0 m

Map

Weather


0- 5 10 15 20 25 30 35+ Temperature / ° C

Clouds and Precipitation
Forecast for 2017-12-11 12:00 UTC. Updated 38 minutes ago

Ground ~20,000 ft ~40,000 ft Winds

METAR

KBYS 111055Z AUTO 00000KT 10SM CLR 09/M21 A3033 RMK AO2 SLP271 WND DATA ESTMD T00851213 PWINO $

TAF

Not found

Frequencies

Tower 134.10 MHz DESERT RDO NORTH
Tower 118.17 MHz DESERT RDO ROZ 1
Warning: Do not use this data for real-world aviation or navigation. No guarantee of current accuracy is given.